Time;durP1;ratioP1;P1;durP2;ratioP2;P2;SDS_P1;SDS_P2;PMS_P1;PMS_P2;Temp;Humidity;BMP_temperature;BMP_pressure;BME280_temperature;BME280_humidity;BME280_pressure;Samples;Min_cycle;Max_cycle;Signal;HPM_P1;HPM_P2
2024/03/10 00:01:51;;;;;;;51.50;21.25;;;;;;;1.90;54.87;100388.97;5030513;28;20070;-74
2024/03/10 00:04:17;;;;;;;49.08;21.23;;;;;;;1.81;55.19;100383.94;5032457;28;20052;-74
2024/03/10 00:06:43;;;;;;;39.42;19.25;;;;;;;1.85;55.15;100380.47;5030844;28;20033;-75
2024/03/10 00:09:08;;;;;;;40.85;17.45;;;;;;;1.82;55.20;100383.09;5028077;28;20037;-74
2024/03/10 00:11:33;;;;;;;40.78;19.38;;;;;;;1.94;54.82;100390.66;5030764;28;20036;-74
2024/03/10 00:13:59;;;;;;;43.03;18.58;;;;;;;1.84;55.29;100391.66;5011055;28;20041;-74
2024/03/10 00:16:24;;;;;;;39.40;20.90;;;;;;;1.90;55.08;100391.56;5021184;28;20628;-74
2024/03/10 00:18:50;;;;;;;45.22;19.10;;;;;;;1.82;55.24;100392.50;5028505;28;20555;-75
2024/03/10 00:21:15;;;;;;;40.53;19.23;;;;;;;1.91;54.86;100395.84;5022328;28;20032;-74
2024/03/10 00:23:41;;;;;;;38.17;18.13;;;;;;;1.96;54.24;100400.09;5015022;28;20650;-74
2024/03/10 00:26:07;;;;;;;51.90;19.92;;;;;;;1.93;54.88;100407.00;5007038;28;20037;-74
2024/03/10 00:28:33;;;;;;;43.03;20.65;;;;;;;1.85;55.11;100398.50;5031097;28;20449;-74
2024/03/10 00:30:59;;;;;;;48.10;18.90;;;;;;;1.81;55.21;100401.97;5017565;28;20103;-75
2024/03/10 00:33:26;;;;;;;44.70;20.95;;;;;;;1.84;54.98;100391.66;5034169;28;20036;-74
2024/03/10 00:35:52;;;;;;;44.80;18.38;;;;;;;1.82;55.25;100390.81;5028054;28;20062;-74
2024/03/10 00:38:18;;;;;;;41.15;18.83;;;;;;;1.92;54.50;100384.66;5026372;28;20045;-74
2024/03/10 00:40:46;;;;;;;48.30;19.83;;;;;;;1.67;55.12;100385.81;5030019;28;20041;-74
2024/03/10 00:43:12;;;;;;;41.10;18.90;;;;;;;1.66;55.30;100381.53;5029613;28;20069;-76
2024/03/10 00:45:37;;;;;;;53.58;18.55;;;;;;;1.66;55.39;100386.69;5039608;28;20067;-77
2024/03/10 00:48:04;;;;;;;45.60;18.58;;;;;;;1.60;55.67;100394.50;5015517;28;20115;-75
2024/03/10 00:50:30;;;;;;;42.83;17.75;;;;;;;1.56;55.81;100387.66;5034225;28;20033;-76
2024/03/10 00:52:56;;;;;;;40.42;18.50;;;;;;;1.74;55.21;100395.19;5023381;28;20036;-72
2024/03/10 00:55:21;;;;;;;38.42;17.35;;;;;;;1.70;55.38;100399.50;5025793;28;20036;-75
2024/03/10 00:57:47;;;;;;;42.53;19.30;;;;;;;1.80;54.91;100395.13;5028278;28;20036;-76
2024/03/10 01:00:13;;;;;;;36.33;19.00;;;;;;;1.80;55.35;100405.44;5025044;28;20059;-75
2024/03/10 01:02:39;;;;;;;45.88;19.60;;;;;;;1.82;54.79;100402.81;5028377;28;20189;-73
2024/03/10 01:05:06;;;;;;;42.65;20.27;;;;;;;1.64;55.55;100403.88;5029880;28;20490;-74
2024/03/10 01:07:32;;;;;;;49.08;19.95;;;;;;;1.72;55.10;100402.06;5018250;28;20044;-72
2024/03/10 01:09:58;;;;;;;48.13;19.55;;;;;;;1.54;55.75;100399.69;5016061;28;20025;-73
2024/03/10 01:12:23;;;;;;;38.80;17.88;;;;;;;1.71;55.13;100411.53;5026828;28;20521;-76
2024/03/10 01:14:49;;;;;;;41.08;19.05;;;;;;;1.62;55.33;100413.38;5030857;28;20032;-67
2024/03/10 01:17:15;;;;;;;41.72;17.48;;;;;;;1.69;55.10;100412.44;5020694;28;20507;-66
2024/03/10 01:19:41;;;;;;;42.05;18.55;;;;;;;1.58;55.66;100415.13;5024598;28;20032;-67
2024/03/10 01:22:06;;;;;;;44.42;18.90;;;;;;;1.61;55.52;100409.91;5023066;28;20036;-66
2024/03/10 01:24:32;;;;;;;37.92;17.80;;;;;;;1.56;55.38;100405.69;5030904;28;20037;-70
2024/03/10 01:26:58;;;;;;;40.70;18.42;;;;;;;1.74;54.82;100402.91;5026911;28;20044;-67
2024/03/10 01:29:27;;;;;;;45.85;19.55;;;;;;;1.62;55.26;100400.50;5030717;28;20044;-68
2024/03/10 01:31:55;;;;;;;38.58;17.92;;;;;;;1.73;54.89;100403.81;5030698;28;20032;-67
2024/03/10 01:34:21;;;;;;;42.17;18.48;;;;;;;1.62;55.16;100400.50;5025708;28;20668;-68
2024/03/10 01:36:47;;;;;;;45.70;18.45;;;;;;;1.43;55.96;100392.94;5032827;28;20020;-68
2024/03/10 01:39:13;;;;;;;42.63;20.27;;;;;;;1.67;55.18;100388.41;5021674;28;20762;-68
2024/03/10 01:41:38;;;;;;;45.15;18.83;;;;;;;1.47;55.01;100381.72;5034266;28;20044;-68
2024/03/10 01:44:05;;;;;;;42.50;20.05;;;;;;;1.48;55.36;100369.69;5025479;28;20449;-68
2024/03/10 01:46:32;;;;;;;41.13;18.60;;;;;;;1.46;55.64;100362.00;5031760;28;20036;-68
2024/03/10 01:48:58;;;;;;;42.47;18.75;;;;;;;1.32;55.95;100361.25;5029014;28;20510;-75
2024/03/10 01:51:24;;;;;;;45.92;19.30;;;;;;;1.04;56.57;100366.66;5030567;28;20040;-74
2024/03/10 01:53:51;;;;;;;47.35;20.05;;;;;;;1.42;55.74;100368.06;5043000;28;20642;-75
2024/03/10 01:56:18;;;;;;;50.20;19.33;;;;;;;1.27;56.22;100373.31;5030075;28;20041;-75
2024/03/10 01:58:45;;;;;;;42.88;19.17;;;;;;;1.35;55.99;100370.66;5033711;28;20128;-75
2024/03/10 02:01:15;;;;;;;44.20;20.73;;;;;;;1.38;55.68;100374.06;5041269;28;20045;-77
2024/03/10 02:03:43;;;;;;;39.33;18.17;;;;;;;1.20;56.45;100369.09;5033527;28;20048;-76
2024/03/10 02:06:09;;;;;;;44.88;18.42;;;;;;;1.20;56.76;100371.69;5025728;28;20029;-78
2024/03/10 02:08:36;;;;;;;40.92;17.77;;;;;;;1.04;57.25;100368.38;5036121;28;20048;-76
2024/03/10 02:11:06;;;;;;;38.35;18.02;;;;;;;1.30;56.40;100373.28;5031071;28;20094;-77
2024/03/10 02:13:32;;;;;;;40.40;19.33;;;;;;;1.35;55.80;100368.97;5016895;28;20505;-77
2024/03/10 02:16:02;;;;;;;43.63;18.50;;;;;;;1.14;56.82;100371.72;5018819;28;20115;-77
2024/03/10 02:18:28;;;;;;;45.13;18.60;;;;;;;1.20;56.57;100375.09;5005161;28;20087;-77
2024/03/10 02:20:55;;;;;;;41.92;18.90;;;;;;;1.41;55.76;100376.63;5024049;28;20153;-77
2024/03/10 02:23:23;;;;;;;46.85;17.25;;;;;;;1.10;56.81;100370.88;5018630;28;20099;-76
2024/03/10 02:25:52;;;;;;;46.40;18.52;;;;;;;1.17;56.64;100371.69;5021143;28;20035;-78
2024/03/10 02:28:23;;;;;;;36.55;16.83;;;;;;;1.15;57.24;100369.16;5015183;28;20055;-76
2024/03/10 02:30:58;;;;;;;42.40;18.15;;;;;;;1.16;56.51;100364.84;5022179;28;20037;-78
2024/03/10 02:47:14;;;;;;;43.97;17.88;;;;;;;1.20;56.56;100345.94;5029317;28;20631;-73
2024/03/10 02:49:43;;;;;;;53.70;20.23;;;;;;;1.26;56.25;100345.84;5028524;28;20035;-74
2024/03/10 02:52:09;;;;;;;43.15;19.27;;;;;;;1.17;56.74;100335.66;5026096;28;20064;-74
2024/03/10 02:54:39;;;;;;;48.97;18.23;;;;;;;1.19;56.39;100331.34;5025749;28;20684;-74
2024/03/10 02:57:06;;;;;;;43.97;18.83;;;;;;;1.18;56.42;100332.22;5029374;28;20036;-74
2024/03/10 02:59:32;;;;;;;44.50;19.70;;;;;;;1.18;56.57;100332.22;5024453;28;20028;-76
2024/03/10 03:01:58;;;;;;;42.22;18.58;;;;;;;1.05;57.21;100332.31;5033726;28;20037;-76
2024/03/10 03:04:28;;;;;;;41.90;19.55;;;;;;;0.93;57.76;100326.44;5029601;28;20044;-77
2024/03/10 03:06:54;;;;;;;40.40;17.00;;;;;;;0.89;57.82;100316.16;5032537;28;20044;-75
2024/03/10 03:09:20;;;;;;;41.58;18.02;;;;;;;0.97;57.56;100323.84;5024287;28;20063;-74
2024/03/10 03:11:47;;;;;;;48.92;19.23;;;;;;;0.95;57.52;100320.41;5027841;28;20561;-76
2024/03/10 03:14:13;;;;;;;43.17;20.13;;;;;;;0.76;58.14;100318.88;5016878;28;20794;-76
2024/03/10 03:16:40;;;;;;;40.67;18.23;;;;;;;0.80;57.98;100315.41;5017100;28;20119;-76
2024/03/10 03:19:06;;;;;;;51.33;21.30;;;;;;;0.91;57.70;100313.59;5027862;28;20119;-76
2024/03/10 03:21:33;;;;;;;40.42;17.80;;;;;;;0.95;57.57;100311.81;5015719;28;20398;-76
2024/03/10 03:23:59;;;;;;;51.40;18.27;;;;;;;0.93;57.68;100321.31;5030291;28;20587;-76
2024/03/10 03:26:24;;;;;;;45.13;18.58;;;;;;;0.90;57.71;100317.00;5028688;28;20490;-76
2024/03/10 03:28:50;;;;;;;46.65;19.42;;;;;;;0.97;57.53;100313.53;5033403;28;20051;-77
2024/03/10 03:31:19;;;;;;;48.35;20.63;;;;;;;1.11;57.17;100315.97;5027965;28;20036;-76
2024/03/10 03:33:45;;;;;;;44.35;20.20;;;;;;;1.03;57.60;100315.19;5037765;28;20070;-78
2024/03/10 03:36:12;;;;;;;41.13;20.05;;;;;;;1.08;57.18;100322.00;5013849;28;20108;-74
2024/03/10 03:38:38;;;;;;;44.13;19.70;;;;;;;1.00;57.49;100315.22;5026685;28;20097;-76
2024/03/10 03:41:05;;;;;;;43.65;17.85;;;;;;;1.10;57.15;100322.84;5034198;28;20024;-76
2024/03/10 03:43:30;;;;;;;45.92;18.02;;;;;;;1.10;57.34;100314.25;5026380;28;20033;-76
2024/03/10 03:45:56;;;;;;;52.28;20.33;;;;;;;1.06;57.33;100318.59;5014946;28;20037;-76
2024/03/10 03:48:21;;;;;;;42.88;19.42;;;;;;;1.04;57.16;100325.47;5008784;28;20790;-76
2024/03/10 03:50:47;;;;;;;50.40;20.63;;;;;;;1.11;56.79;100334.00;5027971;28;20475;-75
2024/03/10 03:53:12;;;;;;;50.33;19.95;;;;;;;1.29;56.83;100330.38;5027817;28;20073;-75
2024/03/10 03:55:38;;;;;;;45.70;20.50;;;;;;;1.08;57.55;100329.75;5023283;28;20067;-75
2024/03/10 03:58:03;;;;;;;43.03;17.42;;;;;;;1.21;56.79;100334.75;5028483;28;20557;-75
2024/03/10 04:00:29;;;;;;;46.28;19.90;;;;;;;1.21;56.88;100334.75;5027081;28;20036;-74
2024/03/10 04:02:55;;;;;;;39.78;19.02;;;;;;;1.11;57.31;100332.28;5019540;28;20038;-74
2024/03/10 04:05:21;;;;;;;35.97;17.42;;;;;;;1.10;57.13;100332.28;5010156;28;20066;-73
2024/03/10 04:07:47;;;;;;;47.17;19.30;;;;;;;1.00;57.46;100331.53;5002944;28;20092;-69
2024/03/10 04:10:13;;;;;;;44.17;18.08;;;;;;;0.95;57.68;100337.56;5015977;28;20939;-70
2024/03/10 04:12:39;;;;;;;41.70;19.30;;;;;;;1.09;57.50;100338.31;5004175;28;20503;-69
2024/03/10 04:15:09;;;;;;;50.38;19.65;;;;;;;0.95;58.06;100335.88;5003013;28;20404;-69
2024/03/10 04:17:35;;;;;;;40.70;18.58;;;;;;;1.03;57.75;100343.50;5012117;28;20232;-68
2024/03/10 04:20:02;;;;;;;40.88;18.77;;;;;;;1.06;57.15;100333.16;5015971;28;20036;-68
2024/03/10 04:22:27;;;;;;;39.10;18.00;;;;;;;0.96;57.80;100332.41;5005742;28;20033;-67
2024/03/10 04:24:54;;;;;;;48.05;19.88;;;;;;;0.84;58.14;100337.69;5019342;28;20090;-66
2024/03/10 04:27:20;;;;;;;49.15;19.83;;;;;;;0.90;57.97;100333.34;5013308;28;20971;-71
2024/03/10 04:29:46;;;;;;;43.58;16.55;;;;;;;1.03;57.55;100334.06;5011261;28;20050;-71
2024/03/10 04:32:12;;;;;;;46.40;20.25;;;;;;;1.01;57.49;100333.22;5017870;28;20029;-71
2024/03/10 04:34:38;;;;;;;37.10;16.95;;;;;;;1.01;57.60;100335.78;5019023;28;20565;-72
2024/03/10 04:37:07;;;;;;;38.85;18.45;;;;;;;0.84;57.95;100338.53;5031506;28;20034;-72
2024/03/10 04:39:34;;;;;;;38.10;18.17;;;;;;;1.02;57.33;100337.50;5026992;28;20041;-72
2024/03/10 04:42:00;;;;;;;43.20;17.50;;;;;;;0.84;58.02;100335.09;5033371;28;20501;-72
2024/03/10 04:44:26;;;;;;;43.78;17.92;;;;;;;0.93;57.84;100332.44;5022739;28;20044;-72
2024/03/10 04:46:51;;;;;;;40.30;18.45;;;;;;;0.94;57.62;100339.28;5021384;28;20398;-71
2024/03/10 04:49:17;;;;;;;47.75;19.50;;;;;;;0.92;57.84;100330.72;5029729;28;20048;-67
2024/03/10 04:51:43;;;;;;;41.25;17.77;;;;;;;0.93;57.53;100341.91;5026388;28;20158;-67
2024/03/10 04:54:09;;;;;;;44.63;17.67;;;;;;;0.80;57.97;100330.84;5029152;28;20048;-67
2024/03/10 04:56:35;;;;;;;44.83;18.33;;;;;;;0.87;57.80;100342.78;5025484;28;20549;-66
2024/03/10 04:59:05;;;;;;;44.75;18.48;;;;;;;0.65;58.09;100337.78;5035623;28;20135;-66
2024/03/10 05:01:32;;;;;;;44.72;18.45;;;;;;;0.94;57.80;100334.13;5025964;28;20055;-67
2024/03/10 05:03:57;;;;;;;40.50;16.70;;;;;;;0.81;57.86;100333.38;5029575;28;20069;-66
2024/03/10 05:06:23;;;;;;;50.35;21.30;;;;;;;0.79;58.04;100324.84;5026644;28;20127;-67
2024/03/10 05:08:49;;;;;;;35.72;16.73;;;;;;;0.90;57.46;100327.31;5031690;28;20041;-67
2024/03/10 05:11:18;;;;;;;46.22;17.92;;;;;;;0.60;58.10;100329.28;5030090;28;20048;-67
2024/03/10 05:13:45;;;;;;;44.72;20.27;;;;;;;0.75;58.33;100319.72;5028659;28;20874;-67
2024/03/10 05:16:16;;;;;;;44.20;17.38;;;;;;;0.88;57.76;100329.03;5029912;28;20521;-67
2024/03/10 05:18:42;;;;;;;42.67;18.55;;;;;;;0.85;58.20;100322.19;5030400;28;20109;-67
2024/03/10 05:21:08;;;;;;;41.90;17.27;;;;;;;0.87;57.89;100320.47;5046199;28;20032;-67
2024/03/10 05:23:34;;;;;;;37.78;17.48;;;;;;;0.75;57.99;100310.31;5021623;28;20036;-67
2024/03/10 05:26:00;;;;;;;41.05;18.02;;;;;;;0.78;58.20;100315.41;5032546;28;20028;-67
2024/03/10 05:28:25;;;;;;;44.70;19.25;;;;;;;0.62;58.87;100306.97;5036121;28;20033;-68
2024/03/10 05:30:52;;;;;;;50.10;19.13;;;;;;;0.54;58.63;100301.03;5033446;28;20040;-67
2024/03/10 05:33:18;;;;;;;39.78;17.65;;;;;;;0.80;58.00;100305.13;5030624;28;20076;-67
2024/03/10 05:35:44;;;;;;;52.67;17.55;;;;;;;0.60;58.94;100308.69;5027737;28;21358;-67
2024/03/10 05:38:10;;;;;;;44.40;18.17;;;;;;;0.57;58.88;100301.00;5030518;28;20046;-68
2024/03/10 05:40:35;;;;;;;38.95;17.17;;;;;;;0.33;59.22;100311.47;5016111;28;20036;-67
2024/03/10 05:43:01;;;;;;;41.67;18.40;;;;;;;0.53;59.28;100312.19;5030786;28;20037;-69
2024/03/10 05:45:26;;;;;;;40.03;18.65;;;;;;;0.63;58.93;100303.50;5028283;28;20526;-68
2024/03/10 05:47:53;;;;;;;40.15;16.88;;;;;;;0.62;58.68;100306.13;5028561;28;20190;-72
2024/03/10 05:50:20;;;;;;;40.90;18.17;;;;;;;0.73;58.71;100312.03;5028952;28;20194;-72
2024/03/10 05:52:46;;;;;;;43.08;18.88;;;;;;;0.71;58.49;100303.47;5019877;28;20414;-72
2024/03/10 05:55:12;;;;;;;45.08;19.20;;;;;;;0.60;59.12;100303.56;5037554;28;20031;-71
2024/03/10 05:57:41;;;;;;;44.33;18.80;;;;;;;0.69;58.80;100303.47;5018249;28;20094;-71
2024/03/10 06:00:13;;;;;;;41.55;16.67;;;;;;;0.61;59.28;100305.28;5032591;28;20025;-70
2024/03/10 06:02:46;;;;;;;34.92;17.52;;;;;;;0.64;58.75;100305.25;5025110;28;20063;-73
2024/03/10 06:05:13;;;;;;;37.42;17.75;;;;;;;0.77;58.46;100310.25;5021631;28;20028;-71
2024/03/10 06:07:43;;;;;;;38.35;17.50;;;;;;;0.87;58.33;100302.47;5025110;28;20526;-71
2024/03/10 06:10:10;;;;;;;43.25;17.10;;;;;;;0.77;58.42;100299.97;5033830;28;20148;-69
2024/03/10 06:12:37;;;;;;;46.42;18.45;;;;;;;0.54;58.75;100298.44;5018436;28;20045;-69
2024/03/10 06:15:03;;;;;;;50.60;21.17;;;;;;;0.55;58.92;100299.31;5030461;28;20836;-69
2024/03/10 06:17:33;;;;;;;43.63;19.10;;;;;;;0.60;59.05;100297.56;5025618;28;20048;-71
2024/03/10 06:25:27;;;;;;;45.13;18.65;;;;;;;0.77;58.84;100294.84;5031867;28;20029;-71
2024/03/10 06:27:56;;;;;;;38.45;18.10;;;;;;;0.38;59.37;100286.59;5032000;28;20044;-74
2024/03/10 06:30:23;;;;;;;48.88;21.40;;;;;;;0.63;59.04;100298.38;5032818;28;20046;-75
2024/03/10 06:32:50;;;;;;;44.30;20.13;;;;;;;0.93;58.11;100308.44;5021999;28;20041;-74
2024/03/10 06:35:19;;;;;;;44.22;18.13;;;;;;;0.93;58.39;100300.72;5031312;28;20036;-75
2024/03/10 06:37:48;;;;;;;41.28;18.80;;;;;;;1.23;57.47;100304.69;5023464;28;20033;-73
2024/03/10 06:40:16;;;;;;;45.28;18.83;;;;;;;1.19;57.48;100308.16;5032097;28;20094;-71
2024/03/10 06:42:42;;;;;;;43.35;18.35;;;;;;;1.15;57.15;100301.34;5023279;28;20057;-69
2024/03/10 06:45:08;;;;;;;48.38;19.90;;;;;;;1.40;57.00;100307.97;5033859;28;20060;-72
2024/03/10 06:47:34;;;;;;;46.30;19.33;;;;;;;1.31;57.24;100314.06;5022837;28;20053;-72
2024/03/10 06:50:00;;;;;;;50.92;18.90;;;;;;;1.42;56.91;100313.13;5032935;28;20155;-73
2024/03/10 06:52:25;;;;;;;44.50;19.10;;;;;;;1.73;56.29;100316.19;5027039;28;20414;-73
2024/03/10 06:54:51;;;;;;;46.08;19.00;;;;;;;1.92;55.62;100315.06;5032790;28;20509;-73
2024/03/10 06:57:17;;;;;;;50.15;20.50;;;;;;;2.19;54.94;100325.03;5029691;28;20133;-70
2024/03/10 06:59:42;;;;;;;44.85;19.98;;;;;;;2.72;53.17;100306.16;5023039;28;20065;-71
2024/03/10 07:02:11;;;;;;;44.03;19.45;;;;;;;3.80;51.56;100307.63;5027342;28;20035;-69
2024/03/10 07:04:40;;;;;;;40.92;17.90;;;;;;;4.46;49.14;100307.91;5025989;28;20768;-69
2024/03/10 07:07:08;;;;;;;40.85;18.38;;;;;;;4.38;48.44;100302.06;5029088;28;20162;-76
2024/03/10 07:09:35;;;;;;;41.90;18.75;;;;;;;4.30;48.57;100298.81;5016135;28;20111;-74
2024/03/10 07:12:03;;;;;;;51.83;19.48;;;;;;;4.28;48.31;100303.16;5033807;28;20091;-69
2024/03/10 07:14:28;;;;;;;39.97;17.83;;;;;;;4.11;48.58;100293.19;5026158;28;20033;-71
2024/03/10 07:16:54;;;;;;;38.83;17.38;;;;;;;4.04;48.69;100301.97;5018316;28;20528;-75
2024/03/10 07:19:19;;;;;;;36.70;17.17;;;;;;;3.85;49.29;100302.38;5022923;28;20482;-74
2024/03/10 07:21:45;;;;;;;43.60;18.58;;;;;;;3.64;49.86;100297.66;5023975;28;20817;-70
2024/03/10 07:24:10;;;;;;;46.13;18.88;;;;;;;3.65;49.94;100297.63;5027532;28;20114;-70
2024/03/10 07:26:36;;;;;;;43.85;18.73;;;;;;;3.67;50.29;100302.75;5021384;28;20567;-70
2024/03/10 07:29:02;;;;;;;40.08;17.63;;;;;;;3.95;49.70;100297.84;5026345;28;20045;-72
2024/03/10 07:31:28;;;;;;;38.80;18.55;;;;;;;3.77;49.97;100294.75;5013652;28;20036;-70
2024/03/10 07:33:54;;;;;;;37.45;17.17;;;;;;;3.71;50.04;100284.56;5022271;28;20749;-71
2024/03/10 07:36:22;;;;;;;39.00;19.38;;;;;;;3.59;50.54;100285.66;5027088;28;20033;-67
2024/03/10 07:38:48;;;;;;;39.83;17.85;;;;;;;3.71;50.44;100291.47;5022684;28;20039;-68
2024/03/10 07:41:15;;;;;;;38.33;17.00;;;;;;;3.49;50.48;100289.34;5026732;28;20029;-68
2024/03/10 07:43:41;;;;;;;38.83;18.20;;;;;;;3.19;51.10;100289.00;5022958;28;20812;-71
2024/03/10 07:46:07;;;;;;;44.00;18.80;;;;;;;3.51;50.82;100290.13;5027630;28;20563;-77
2024/03/10 07:48:32;;;;;;;42.30;18.25;;;;;;;3.35;50.94;100297.31;5020377;28;20072;-72
2024/03/10 07:50:58;;;;;;;38.47;18.48;;;;;;;3.44;51.10;100278.22;5015247;28;20497;-73
2024/03/10 07:53:24;;;;;;;38.88;18.08;;;;;;;3.47;51.28;100280.75;5018567;28;20055;-72
2024/03/10 07:55:50;;;;;;;43.28;18.98;;;;;;;3.47;50.77;100285.06;5019857;28;20025;-77
2024/03/10 07:58:15;;;;;;;39.38;20.20;;;;;;;3.35;51.63;100286.16;5030637;28;20039;-73
2024/03/10 08:00:43;;;;;;;47.63;18.45;;;;;;;3.12;52.17;100283.97;5024452;28;20036;-72
2024/03/10 08:03:09;;;;;;;45.28;17.00;;;;;;;2.44;53.67;100284.25;5025663;28;20294;-71
2024/03/10 08:05:35;;;;;;;45.88;20.58;;;;;;;2.60;53.63;100296.06;5027424;28;20556;-71
2024/03/10 08:08:01;;;;;;;39.70;19.98;;;;;;;2.69;53.63;100298.50;5021073;28;20036;-73
2024/03/10 08:10:27;;;;;;;39.53;18.60;;;;;;;3.08;52.64;100293.50;5025068;28;20115;-75
2024/03/10 08:12:55;;;;;;;49.53;19.92;;;;;;;2.80;52.95;100310.34;5022536;28;20033;-76
2024/03/10 08:15:21;;;;;;;43.30;19.67;;;;;;;3.05;52.93;100306.47;5032779;28;20513;-67
2024/03/10 08:17:47;;;;;;;38.55;17.65;;;;;;;3.06;52.65;100304.75;5021640;28;20041;-68
2024/03/10 08:20:14;;;;;;;41.63;18.67;;;;;;;3.15;52.61;100308.00;5028121;28;20040;-68
2024/03/10 08:22:41;;;;;;;47.88;19.33;;;;;;;3.34;52.20;100312.88;5019603;28;20041;-70
2024/03/10 08:25:07;;;;;;;46.58;19.98;;;;;;;3.04;52.75;100317.66;5023142;28;20114;-68
2024/03/10 08:27:36;;;;;;;47.67;20.42;;;;;;;3.13;52.84;100320.09;5014450;28;20044;-69
2024/03/10 08:30:03;;;;;;;45.65;20.02;;;;;;;3.01;53.08;100315.16;5011029;28;20037;-69
2024/03/10 08:32:29;;;;;;;41.33;17.45;;;;;;;3.24;52.45;100329.38;5018827;28;20053;-69
2024/03/10 08:34:55;;;;;;;45.83;18.55;;;;;;;3.22;52.65;100325.97;5019027;28;20033;-69
2024/03/10 08:37:22;;;;;;;45.17;19.15;;;;;;;3.50;51.85;100332.34;5015914;28;20044;-69
2024/03/10 08:39:50;;;;;;;50.92;21.98;;;;;;;3.57;51.91;100336.53;5016833;28;20036;-69
2024/03/10 08:42:16;;;;;;;45.92;20.33;;;;;;;3.33;52.31;100340.41;5026295;28;20036;-68
2024/03/10 08:44:42;;;;;;;38.53;18.52;;;;;;;3.43;52.66;100343.69;5025038;28;20027;-69
2024/03/10 08:47:08;;;;;;;39.55;20.55;;;;;;;3.39;52.45;100336.88;5026729;28;20039;-69
2024/03/10 08:49:33;;;;;;;46.22;19.77;;;;;;;3.58;52.45;100340.81;5023243;28;20107;-69
2024/03/10 08:52:01;;;;;;;49.78;21.17;;;;;;;3.76;51.64;100337.03;5022009;28;20408;-68
2024/03/10 08:54:29;;;;;;;50.58;20.92;;;;;;;3.95;51.34;100334.06;5021742;28;20036;-68
2024/03/10 08:56:56;;;;;;;39.85;19.17;;;;;;;3.81;51.85;100329.16;5023628;28;20028;-70
2024/03/10 08:59:21;;;;;;;39.58;18.80;;;;;;;4.04;51.63;100341.59;5027856;28;20527;-68
2024/03/10 09:01:47;;;;;;;45.83;20.08;;;;;;;4.08;51.22;100342.41;5026980;28;20042;-69
2024/03/10 09:04:12;;;;;;;40.03;18.75;;;;;;;4.10;51.48;100335.47;5022415;28;20626;-70
2024/03/10 09:06:38;;;;;;;40.95;19.10;;;;;;;4.17;50.78;100331.84;5027763;28;20058;-70
2024/03/10 09:09:06;;;;;;;41.47;20.60;;;;;;;4.05;51.12;100332.97;5022252;28;20032;-70
2024/03/10 09:11:32;;;;;;;38.40;17.67;;;;;;;3.93;51.51;100328.06;5028474;28;20033;-69
2024/03/10 09:14:00;;;;;;;41.60;19.33;;;;;;;3.98;51.37;100334.84;5016172;28;20083;-70
2024/03/10 09:16:26;;;;;;;46.63;18.25;;;;;;;4.10;51.23;100322.53;5019250;28;20551;-70
2024/03/10 09:18:52;;;;;;;38.72;16.67;;;;;;;4.27;50.58;100319.56;5022776;28;20047;-70
2024/03/10 09:21:18;;;;;;;40.40;18.75;;;;;;;4.48;50.65;100323.41;5026124;28;20032;-69
2024/03/10 09:23:44;;;;;;;43.30;19.33;;;;;;;4.48;50.18;100313.06;5019461;28;20853;-69
2024/03/10 09:26:11;;;;;;;44.15;20.40;;;;;;;5.37;49.36;100310.81;5015490;28;20036;-69
2024/03/10 09:28:37;;;;;;;39.92;19.13;;;;;;;5.77;48.12;100320.06;5027790;28;20045;-70
2024/03/10 09:31:03;;;;;;;42.90;19.77;;;;;;;6.17;46.93;100321.47;5028828;28;20766;-69
2024/03/10 09:33:29;;;;;;;36.50;19.40;;;;;;;6.17;46.44;100321.47;5027423;28;20148;-70
2024/03/10 09:35:58;;;;;;;35.50;19.70;;;;;;;6.41;46.18;100314.72;5027818;28;20645;-70
2024/03/10 09:38:24;;;;;;;40.63;19.05;;;;;;;6.76;45.00;100320.53;5016631;28;20036;-70
2024/03/10 09:40:50;;;;;;;41.75;18.52;;;;;;;6.36;45.79;100325.25;5025287;28;20036;-69
2024/03/10 09:43:16;;;;;;;39.22;18.95;;;;;;;6.15;46.21;100316.34;5031063;28;20098;-70
2024/03/10 09:45:49;;;;;;;36.65;17.88;;;;;;;5.83;47.24;100312.94;5030254;28;20041;-70
2024/03/10 09:48:15;;;;;;;37.58;19.30;;;;;;;5.91;47.32;100315.34;5023338;28;20045;-70
2024/03/10 09:50:49;;;;;;;38.65;18.70;;;;;;;5.91;47.03;100310.16;5018008;28;20044;-69
2024/03/10 09:53:18;;;;;;;40.53;17.17;;;;;;;5.94;47.20;100302.25;5024023;28;20036;-69
2024/03/10 09:55:45;;;;;;;41.63;20.27;;;;;;;6.16;47.26;100288.66;5018143;28;20043;-69
2024/03/10 09:58:13;;;;;;;38.42;19.35;;;;;;;5.82;47.10;100287.09;5020118;28;20653;-70
2024/03/10 10:00:40;;;;;;;48.30;20.48;;;;;;;5.71;47.70;100289.97;5029367;28;20040;-69
2024/03/10 10:03:09;;;;;;;37.20;18.75;;;;;;;5.73;47.84;100285.59;5024535;28;20116;-70
2024/03/10 10:05:44;;;;;;;40.75;19.60;;;;;;;6.15;47.17;100285.22;5017047;28;20629;-71
2024/03/10 10:08:13;;;;;;;35.47;18.90;;;;;;;6.42;46.86;100283.53;5019821;28;20072;-70
2024/03/10 10:10:52;;;;;;;39.42;19.30;;;;;;;6.14;46.83;100278.31;5029472;28;20040;-70
2024/03/10 10:13:26;;;;;;;39.35;20.05;;;;;;;5.84;47.32;100274.91;5029195;28;20045;-69
2024/03/10 10:15:53;;;;;;;42.70;19.52;;;;;;;6.14;47.62;100270.53;5023096;28;20043;-70
2024/03/10 10:18:19;;;;;;;35.15;19.13;;;;;;;6.07;47.21;100282.84;5028028;28;20835;-69
2024/03/10 10:20:51;;;;;;;42.25;20.13;;;;;;;6.42;46.53;100273.13;5024458;28;20528;-70
2024/03/10 10:23:23;;;;;;;43.25;19.77;;;;;;;6.39;46.61;100268.03;5041830;27;20446;-69
2024/03/10 10:26:10;;;;;;;38.20;18.52;;;;;;;6.81;46.50;100267.50;5032354;28;20415;-70
2024/03/10 10:28:37;;;;;;;36.58;17.77;;;;;;;7.09;45.02;100256.19;5029878;28;20190;-69
2024/03/10 10:31:13;;;;;;;35.72;17.25;;;;;;;7.35;44.60;100260.44;5024186;28;20771;-69
2024/03/10 10:33:41;;;;;;;41.58;20.67;;;;;;;7.59;44.25;100245.72;5028906;28;20033;-69
2024/03/10 10:36:07;;;;;;;34.05;18.92;;;;;;;7.97;43.90;100240.78;5025034;28;21601;-70
2024/03/10 10:38:49;;;;;;;36.08;18.65;;;;;;;7.87;43.14;100231.63;5028189;28;20048;-70
2024/03/10 10:41:15;;;;;;;38.35;18.48;;;;;;;7.37;44.21;100236.97;5024945;28;20024;-69
2024/03/10 10:43:42;;;;;;;36.95;18.17;;;;;;;7.37;43.94;100236.97;5030982;28;20044;-69
2024/03/10 10:46:14;;;;;;;38.50;19.08;;;;;;;6.78;45.55;100228.66;5027053;28;20167;-69
2024/03/10 10:48:40;;;;;;;;;;;;;;;6.98;45.38;100214.16;5029357;28;20049;-69
2024/03/10 10:51:09;;;;;;;39.47;17.42;;;;;;;7.08;44.78;100207.69;5048465;28;19923;-69
2024/03/10 10:53:38;;;;;;;41.92;20.73;;;;;;;7.04;45.62;100206.09;5032170;28;20031;-70
2024/03/10 10:56:04;;;;;;;37.13;19.33;;;;;;;7.00;45.84;100183.72;5020285;28;20429;-69
2024/03/10 10:58:34;;;;;;;35.17;18.52;;;;;;;7.37;44.61;100179.78;5028192;28;20762;-69
2024/03/10 11:01:04;;;;;;;42.22;19.20;;;;;;;7.50;45.02;100170.63;5028262;28;20697;-69
2024/03/10 11:03:39;;;;;;;35.03;19.30;;;;;;;7.17;44.66;100168.38;5015649;28;20751;-69
2024/03/10 11:06:06;;;;;;;36.70;20.08;;;;;;;7.28;44.74;100171.41;5022745;28;20583;-69
2024/03/10 11:08:33;;;;;;;40.00;19.90;;;;;;;7.80;44.32;100168.63;5026749;28;20229;-69
2024/03/10 11:10:59;;;;;;;49.05;22.50;;;;;;;7.39;44.74;100170.19;5031328;28;20031;-69
2024/03/10 11:13:25;;;;;;;40.90;20.35;;;;;;;8.07;44.46;100165.78;5027192;28;20036;-70
2024/03/10 11:16:11;;;;;;;40.38;19.67;;;;;;;8.36;43.50;100172.44;5029572;28;20090;-70
2024/03/10 11:18:43;;;;;;;39.92;19.33;;;;;;;8.18;43.32;100178.38;5030351;28;20877;-69
2024/03/10 11:21:17;;;;;;;40.75;20.55;;;;;;;8.17;43.90;100174.09;5028406;28;20097;-69
2024/03/10 11:23:44;;;;;;;36.70;17.73;;;;;;;8.62;42.88;100166.09;5027762;28;20064;-70
2024/03/10 11:26:21;;;;;;;38.83;20.48;;;;;;;9.18;42.24;100162.75;5026319;28;20033;-70
2024/03/10 11:28:56;;;;;;;43.72;20.55;;;;;;;8.96;41.62;100173.31;5028470;28;20041;-70
2024/03/10 11:31:33;;;;;;;38.05;19.95;;;;;;;8.89;41.52;100164.06;5028919;28;20032;-69
2024/03/10 11:33:59;;;;;;;38.47;21.40;;;;;;;8.63;42.19;100178.22;5020576;28;20044;-69
2024/03/10 11:36:35;;;;;;;37.35;18.98;;;;;;;8.29;42.79;100176.16;5016182;28;20898;-70